createdAt,value
2018-04-10T00:01:34.376Z,13.50
2018-04-10T00:04:02.612Z,13.60
2018-04-10T00:06:30.100Z,13.50
2018-04-10T00:08:58.356Z,13.50
2018-04-10T00:11:25.820Z,13.50
2018-04-10T00:13:53.304Z,13.50
2018-04-10T00:16:21.540Z,13.60
2018-04-10T00:21:40.312Z,13.60
2018-04-10T00:24:07.804Z,13.60
2018-04-10T00:26:36.048Z,13.80
2018-04-10T00:29:03.516Z,13.70
2018-04-10T00:31:31.773Z,13.80
2018-04-10T00:33:59.248Z,13.70
2018-04-10T00:36:27.504Z,13.80
2018-04-10T00:38:54.976Z,13.80
2018-04-10T00:41:23.256Z,13.80
2018-04-10T00:43:51.491Z,13.90
2018-04-10T00:46:18.960Z,13.90
2018-04-10T00:48:46.444Z,13.90
2018-04-10T00:51:14.680Z,13.80
2018-04-10T00:53:42.180Z,13.80
2018-04-10T00:56:10.414Z,13.80
2018-04-10T00:58:37.900Z,13.70
2018-04-10T01:01:06.383Z,13.70
2018-04-10T01:03:34.620Z,13.70
2018-04-10T01:06:02.145Z,13.70
2018-04-10T01:08:29.664Z,13.70
2018-04-10T01:10:57.157Z,13.60
2018-04-10T01:13:24.636Z,13.60
2018-04-10T01:15:52.441Z,13.60
2018-04-10T01:18:19.911Z,13.60
2018-04-10T01:20:48.147Z,13.50
2018-04-10T01:23:15.628Z,13.50
2018-04-10T01:25:43.868Z,13.50
2018-04-10T01:28:11.356Z,13.40
2018-04-10T01:30:39.601Z,13.40
2018-04-10T01:33:07.093Z,13.40
2018-04-10T01:35:35.328Z,13.20
2018-04-10T01:38:02.802Z,13.20
2018-04-10T01:40:30.289Z,13.20
2018-04-10T01:42:58.524Z,13.10
2018-04-10T01:45:26.052Z,13.10
2018-04-10T01:47:53.526Z,13.10
2018-04-10T01:50:21.320Z,13.10
2018-04-10T01:52:48.788Z,13.00
2018-04-10T01:55:17.023Z,12.90
2018-04-10T01:57:44.592Z,12.90
2018-04-10T02:00:12.105Z,12.90
2018-04-10T02:02:39.578Z,12.80
2018-04-10T02:05:07.064Z,12.80
2018-04-10T02:07:34.536Z,12.70
2018-04-10T02:10:02.776Z,12.60
2018-04-10T02:12:30.261Z,12.50
2018-04-10T02:14:57.736Z,12.50
2018-04-10T02:17:26.042Z,12.40
2018-04-10T02:19:53.594Z,12.30
2018-04-10T02:22:21.092Z,12.40
2018-04-10T02:24:48.565Z,12.30
2018-04-10T02:27:16.814Z,12.20
2018-04-10T02:29:44.300Z,12.20
2018-04-10T02:32:11.776Z,12.30
2018-04-10T02:34:40.024Z,12.30
2018-04-10T02:37:07.496Z,12.30
2018-04-10T02:39:36.065Z,12.00
2018-04-10T02:42:03.536Z,12.00
2018-04-10T02:44:31.780Z,11.80
2018-04-10T02:46:59.269Z,11.80
2018-04-10T02:49:27.507Z,11.70
2018-04-10T02:51:55.005Z,11.70
2018-04-10T02:54:22.488Z,11.70
2018-04-10T02:56:49.992Z,11.70
2018-04-10T02:59:17.463Z,11.80
2018-04-10T03:01:45.696Z,12.10
2018-04-10T03:04:13.184Z,12.10
2018-04-10T03:06:41.420Z,12.00
2018-04-10T03:09:09.068Z,12.00
2018-04-10T03:11:36.568Z,12.00
2018-04-10T03:14:04.828Z,11.90
2018-04-10T03:16:32.301Z,11.90
2018-04-10T03:19:00.535Z,11.90
2018-04-10T03:21:28.020Z,11.80
2018-04-10T03:23:55.496Z,11.80
2018-04-10T03:26:23.750Z,11.80
2018-04-10T03:28:51.233Z,11.80
2018-04-10T03:31:19.485Z,11.80
2018-04-10T03:33:46.988Z,11.80
2018-04-10T03:36:14.460Z,12.00
2018-04-10T03:38:41.973Z,12.10
2018-04-10T03:41:10.204Z,12.10
2018-04-10T03:43:37.687Z,12.10
2018-04-10T03:46:05.160Z,12.20
2018-04-10T03:48:33.742Z,12.40
2018-04-10T03:51:01.976Z,12.50
2018-04-10T03:53:29.448Z,12.40
2018-04-10T03:55:56.932Z,12.40
2018-04-10T03:58:25.167Z,12.50
2018-04-10T04:00:52.656Z,12.50
2018-04-10T04:03:20.894Z,12.50
2018-04-10T04:05:48.384Z,12.50
2018-04-10T04:08:16.629Z,12.50
2018-04-10T04:10:44.104Z,12.50
2018-04-10T04:13:11.588Z,12.50
2018-04-10T04:15:39.160Z,12.50
2018-04-10T04:18:06.665Z,12.40
2018-04-10T04:20:46.945Z,12.30
2018-04-10T04:23:15.352Z,12.30
2018-04-10T04:25:42.851Z,12.30
2018-04-10T04:28:10.332Z,12.30
2018-04-10T04:30:38.560Z,12.20
2018-04-10T04:33:06.051Z,12.20
2018-04-10T04:35:33.521Z,12.10
2018-04-10T04:38:00.992Z,12.10
2018-04-10T04:40:29.299Z,12.00
2018-04-10T04:42:56.766Z,12.00
2018-04-10T04:45:24.280Z,12.00
2018-04-10T04:47:52.512Z,12.00
2018-04-10T04:50:20.304Z,12.00
2018-04-10T04:52:47.770Z,11.90
2018-04-10T04:55:16.004Z,12.00
2018-04-10T04:57:43.521Z,12.00
2018-04-10T05:00:10.997Z,11.90
2018-04-10T05:02:38.480Z,11.90
2018-04-10T05:05:05.955Z,11.90
2018-04-10T05:07:33.464Z,11.90
2018-04-10T05:10:00.932Z,11.90
2018-04-10T05:12:28.403Z,12.00
2018-04-10T05:14:55.884Z,12.10
2018-04-10T05:17:23.348Z,12.10
2018-04-10T05:19:51.604Z,12.30
2018-04-10T05:22:19.076Z,12.20
2018-04-10T05:24:47.344Z,12.20
2018-04-10T05:27:14.812Z,12.20
2018-04-10T05:29:43.049Z,12.30
2018-04-10T05:32:10.528Z,12.30
2018-04-10T05:34:38.013Z,12.40
2018-04-10T05:37:05.520Z,12.50
2018-04-10T05:39:32.992Z,12.50
2018-04-10T05:42:00.480Z,12.50
2018-04-10T05:44:27.949Z,12.50
2018-04-10T05:46:55.416Z,12.60
2018-04-10T05:49:22.908Z,12.70
2018-04-10T05:51:50.375Z,12.70
2018-04-10T05:54:18.636Z,12.90
2018-04-10T05:56:46.103Z,12.90
2018-04-10T05:59:13.596Z,12.90
2018-04-10T06:01:41.064Z,13.00
2018-04-10T06:04:08.540Z,13.10
2018-04-10T06:06:36.024Z,13.20
2018-04-10T06:09:05.312Z,13.30
2018-04-10T06:11:32.796Z,13.40
2018-04-10T06:14:01.025Z,13.50
2018-04-10T06:16:28.508Z,13.50
2018-04-10T06:18:55.976Z,13.60
2018-04-10T06:21:24.216Z,13.70
2018-04-10T06:23:51.697Z,13.70
2018-04-10T06:26:19.160Z,13.80
2018-04-10T06:28:46.644Z,13.90
2018-04-10T06:31:14.108Z,15.50
2018-04-10T06:33:41.572Z,14.10
2018-04-10T06:36:09.054Z,14.20
2018-04-10T06:38:36.521Z,14.30
2018-04-10T06:41:04.002Z,14.40
2018-04-10T06:43:31.478Z,14.50
2018-04-10T06:45:59.728Z,14.50
2018-04-10T06:48:27.204Z,14.50
2018-04-10T06:50:54.784Z,14.50
2018-04-10T06:53:22.279Z,14.70
2018-04-10T06:55:49.748Z,14.70
2018-04-10T06:58:17.252Z,14.80
2018-04-10T07:00:44.712Z,14.90
2018-04-10T07:03:12.524Z,14.90
2018-04-10T07:05:39.988Z,14.90
2018-04-10T07:08:07.462Z,14.80
2018-04-10T07:10:35.753Z,14.90
2018-04-10T07:13:03.948Z,14.90
2018-04-10T07:15:31.457Z,14.90
2018-04-10T07:17:59.688Z,14.60
2018-04-10T07:20:27.993Z,14.60
2018-04-10T07:22:55.456Z,14.60
2018-04-10T07:25:23.688Z,14.50
2018-04-10T07:27:51.176Z,14.40
2018-04-10T07:30:18.644Z,14.50
2018-04-10T07:32:46.967Z,14.50
2018-04-10T07:35:14.438Z,14.50
2018-04-10T07:37:41.920Z,14.40
2018-04-10T07:40:10.171Z,14.40
2018-04-10T07:42:37.676Z,14.40
2018-04-10T07:45:05.973Z,14.30
2018-04-10T07:47:33.432Z,14.30
2018-04-10T07:50:00.914Z,14.30
2018-04-10T07:52:28.376Z,14.20
2018-04-10T07:54:55.856Z,14.20
2018-04-10T07:57:24.092Z,14.30
2018-04-10T07:59:51.600Z,14.20
2018-04-10T08:02:19.853Z,14.20
2018-04-10T08:04:47.390Z,14.20
2018-04-10T08:07:14.816Z,14.20
2018-04-10T08:09:42.314Z,14.00
2018-04-10T08:12:09.789Z,13.80
2018-04-10T08:14:38.045Z,13.60
2018-04-10T08:17:05.508Z,13.60
2018-04-10T08:19:32.988Z,13.50
2018-04-10T08:22:01.216Z,13.30
2018-04-10T08:24:28.701Z,13.30
2018-04-10T08:26:56.165Z,13.20
2018-04-10T08:29:24.404Z,13.20
2018-04-10T08:31:51.880Z,13.20
2018-04-10T08:34:19.348Z,13.20
2018-04-10T08:36:47.604Z,13.20
2018-04-10T08:39:15.068Z,13.20
2018-04-10T08:41:42.560Z,13.20
2018-04-10T08:44:10.028Z,13.40
2018-04-10T08:46:37.548Z,13.60
2018-04-10T08:49:05.784Z,13.80
2018-04-10T08:51:33.268Z,13.80
2018-04-10T08:54:01.504Z,13.80
2018-04-10T08:56:28.988Z,13.80
2018-04-10T08:58:56.456Z,13.80
2018-04-10T09:01:24.708Z,14.00
2018-04-10T09:03:52.180Z,13.90
2018-04-10T09:06:19.672Z,13.90
2018-04-10T09:08:47.148Z,13.90
2018-04-10T09:11:14.620Z,13.90
2018-04-10T09:13:42.112Z,13.90
2018-04-10T09:16:10.361Z,14.00
2018-04-10T09:18:37.848Z,14.00
2018-04-10T09:21:06.089Z,14.30
2018-04-10T09:23:33.581Z,14.30
2018-04-10T09:26:01.886Z,14.30
2018-04-10T09:28:29.369Z,14.30
2018-04-10T09:30:56.902Z,14.20
2018-04-10T09:33:24.388Z,14.40
2018-04-10T09:35:51.976Z,14.60
2018-04-10T09:38:20.236Z,15.20
2018-04-10T09:40:47.712Z,15.20
2018-04-10T09:43:15.965Z,15.10
2018-04-10T09:45:43.440Z,15.00
2018-04-10T09:48:11.695Z,15.20
2018-04-10T09:50:39.172Z,15.20
2018-04-10T09:53:07.416Z,15.40
2018-04-10T09:55:34.904Z,15.50
2018-04-10T09:58:03.145Z,15.70
2018-04-10T10:00:36.320Z,15.70
2018-04-10T10:03:03.794Z,15.80
2018-04-10T10:05:31.280Z,15.80
2018-04-10T10:07:59.520Z,15.80
2018-04-10T10:10:27.008Z,15.70
2018-04-10T10:12:55.283Z,16.00
2018-04-10T10:15:22.744Z,15.90
2018-04-10T10:17:50.978Z,16.00
2018-04-10T10:20:18.460Z,15.90
2018-04-10T10:22:45.937Z,15.90
2018-04-10T10:25:14.192Z,16.30
2018-04-10T10:27:41.655Z,16.30
2018-04-10T10:30:09.905Z,17.40
2018-04-10T10:32:37.373Z,17.40
2018-04-10T10:35:04.876Z,17.60
2018-04-10T10:37:32.344Z,18.00
2018-04-10T10:39:59.813Z,17.80
2018-04-10T10:42:27.300Z,18.10
2018-04-10T10:44:54.764Z,18.40
2018-04-10T10:47:23.034Z,19.00
2018-04-10T10:49:50.500Z,19.00
2018-04-10T10:52:17.976Z,19.40
2018-04-10T10:54:45.440Z,19.30
2018-04-10T10:57:12.920Z,19.20
2018-04-10T10:59:40.396Z,19.50
2018-04-10T11:02:07.880Z,19.40
2018-04-10T11:04:36.112Z,20.20
2018-04-10T11:07:03.604Z,20.20
2018-04-10T11:09:31.907Z,20.60
2018-04-10T11:12:00.139Z,20.70
2018-04-10T11:14:28.368Z,20.00
2018-04-10T11:16:55.856Z,20.00
2018-04-10T11:19:23.316Z,19.40
2018-04-10T11:21:50.786Z,19.80
2018-04-10T11:24:18.266Z,19.70
2018-04-10T11:26:46.500Z,21.00
2018-04-10T11:29:13.986Z,20.90
2018-04-10T11:31:42.220Z,21.60
2018-04-10T11:34:09.704Z,21.60
2018-04-10T11:36:37.168Z,21.10
2018-04-10T11:39:06.168Z,21.00
2018-04-10T11:41:33.612Z,20.90
2018-04-10T11:44:01.113Z,21.00
2018-04-10T11:46:28.580Z,21.10
2018-04-10T11:48:56.060Z,20.90
2018-04-10T11:51:23.534Z,21.10
2018-04-10T11:53:51.012Z,20.80
2018-04-10T11:56:19.255Z,20.90
2018-04-10T11:58:46.740Z,20.90
2018-04-10T12:01:14.972Z,20.40
2018-04-10T12:03:42.760Z,20.40
2018-04-10T12:06:11.078Z,20.80
2018-04-10T12:08:38.548Z,20.80
2018-04-10T12:11:06.036Z,20.70
2018-04-10T12:13:33.504Z,21.10
2018-04-10T12:16:01.047Z,20.80
2018-04-10T12:18:28.485Z,21.20
2018-04-10T12:20:55.964Z,21.10
2018-04-10T12:23:23.432Z,20.90
2018-04-10T12:25:51.028Z,21.20
2018-04-10T12:28:18.528Z,21.60
2018-04-10T12:30:46.001Z,21.70
2018-04-10T12:33:14.232Z,21.90
2018-04-10T12:35:41.716Z,21.90
2018-04-10T12:38:09.176Z,21.20
2018-04-10T12:40:36.665Z,21.00
2018-04-10T12:43:04.915Z,20.80
2018-04-10T12:45:32.372Z,20.80
2018-04-10T12:48:00.624Z,20.60
2018-04-10T12:50:28.084Z,20.50
2018-04-10T12:52:55.568Z,20.50
2018-04-10T12:55:23.804Z,20.20
2018-04-10T12:57:51.286Z,20.20
2018-04-10T13:00:18.744Z,20.00
2018-04-10T13:02:46.240Z,20.10
2018-04-10T13:05:13.702Z,19.90
2018-04-10T13:07:41.257Z,19.70
2018-04-10T13:10:08.733Z,19.50
2018-04-10T13:12:36.271Z,19.60
2018-04-10T13:15:03.737Z,19.30
2018-04-10T13:17:31.280Z,19.30
2018-04-10T13:19:58.740Z,19.40
2018-04-10T13:22:26.293Z,19.40
2018-04-10T13:24:53.756Z,19.30
2018-04-10T13:27:21.224Z,19.00
2018-04-10T13:29:48.705Z,18.90
2018-04-10T13:32:16.175Z,18.90
2018-04-10T13:34:43.655Z,18.50
2018-04-10T13:37:11.230Z,18.10
2018-04-10T13:39:38.708Z,18.10
2018-04-10T13:42:06.175Z,18.10
2018-04-10T13:44:33.682Z,17.90
2018-04-10T13:47:01.165Z,18.10
2018-04-10T13:49:28.652Z,18.20
2018-04-10T13:51:56.117Z,18.20
2018-04-10T13:54:23.649Z,18.10
2018-04-10T13:56:51.088Z,18.20
2018-04-10T13:59:18.563Z,17.90
2018-04-10T14:01:46.028Z,18.00
2018-04-10T14:04:13.512Z,18.20
2018-04-10T14:06:41.756Z,18.00
2018-04-10T14:09:09.220Z,18.00
2018-04-10T14:11:36.705Z,18.20
2018-04-10T14:14:04.940Z,18.70
2018-04-10T14:16:32.425Z,18.70
2018-04-10T14:18:59.888Z,18.80
2018-04-10T14:21:28.201Z,18.70
2018-04-10T14:23:55.686Z,18.70
2018-04-10T14:26:23.174Z,19.00
2018-04-10T14:28:51.414Z,19.20
2018-04-10T14:31:18.904Z,19.20
2018-04-10T14:33:47.132Z,19.50
2018-04-10T14:36:14.624Z,19.40
2018-04-10T14:38:42.089Z,19.50
2018-04-10T14:41:10.348Z,19.50
2018-04-10T14:43:37.813Z,19.40
2018-04-10T14:46:05.317Z,19.40
2018-04-10T14:48:32.797Z,19.10
2018-04-10T14:51:00.296Z,18.90
2018-04-10T14:53:28.575Z,19.30
2018-04-10T14:55:56.822Z,19.70
2018-04-10T14:58:24.325Z,19.70
2018-04-10T15:00:51.818Z,19.80
2018-04-10T15:03:19.296Z,19.80
2018-04-10T15:05:46.842Z,19.80
2018-04-10T15:08:14.357Z,19.80
2018-04-10T15:10:41.826Z,19.60
2018-04-10T15:13:09.308Z,19.70
2018-04-10T15:15:36.769Z,19.50
2018-04-10T15:18:04.277Z,19.60
2018-04-10T15:20:31.746Z,19.70
2018-04-10T15:22:59.228Z,19.30
2018-04-10T15:25:26.711Z,19.20
2018-04-10T15:27:54.208Z,19.60
2018-04-10T15:30:21.680Z,19.40
2018-04-10T15:32:49.140Z,19.30
2018-04-10T15:35:16.621Z,19.20
2018-04-10T15:37:44.154Z,19.20
2018-04-10T15:40:11.625Z,19.20
2018-04-10T15:42:39.144Z,19.40
2018-04-10T15:45:06.624Z,19.30
2018-04-10T15:47:34.157Z,19.30
2018-04-10T15:50:01.718Z,19.40
2018-04-10T15:52:29.188Z,19.60
2018-04-10T15:54:56.684Z,19.90
2018-04-10T15:57:24.149Z,19.80
2018-04-10T15:59:52.396Z,19.50
2018-04-10T16:02:19.898Z,19.40
2018-04-10T16:04:47.407Z,19.30
2018-04-10T16:07:14.872Z,19.30
2018-04-10T16:09:42.403Z,19.00
2018-04-10T16:12:09.853Z,19.00
2018-04-10T16:14:37.329Z,19.10
2018-04-10T16:17:04.812Z,19.00
2018-04-10T16:19:32.313Z,19.10
2018-04-10T16:21:59.789Z,19.10
2018-04-10T16:24:27.254Z,18.90
2018-04-10T16:26:54.736Z,18.80
2018-04-10T16:29:22.208Z,18.80
2018-04-10T16:31:50.452Z,18.70
2018-04-10T16:34:17.916Z,18.70
2018-04-10T16:36:45.400Z,18.70
2018-04-10T16:39:13.626Z,18.80
2018-04-10T16:41:41.114Z,18.80
2018-04-10T16:44:09.351Z,18.60
2018-04-10T16:46:36.832Z,18.60
2018-04-10T16:49:04.300Z,18.60
2018-04-10T16:51:31.806Z,18.60
2018-04-10T16:53:59.275Z,18.60
2018-04-10T16:56:26.740Z,18.50
2018-04-10T16:58:54.229Z,18.40
2018-04-10T17:01:22.468Z,18.10
2018-04-10T17:03:49.960Z,18.10
2018-04-10T17:06:18.214Z,17.80
2018-04-10T17:08:46.472Z,17.80
2018-04-10T17:11:13.936Z,17.80
2018-04-10T17:13:41.412Z,17.60
2018-04-10T17:16:09.644Z,17.40
2018-04-10T17:18:37.120Z,17.40
2018-04-10T17:21:04.596Z,17.20
2018-04-10T17:23:32.909Z,16.00
2018-04-10T17:26:00.380Z,16.00
2018-04-10T17:28:27.882Z,15.00
2018-04-10T17:30:55.344Z,14.40
2018-04-10T17:33:23.592Z,14.00
2018-04-10T17:35:51.068Z,14.00
2018-04-10T17:38:19.332Z,13.60
2018-04-10T17:40:46.812Z,13.50
2018-04-10T17:43:15.056Z,13.20
2018-04-10T17:45:42.537Z,13.20
2018-04-10T17:48:10.770Z,13.00
2018-04-10T17:50:38.271Z,13.00
2018-04-10T17:53:06.509Z,13.20
2018-04-10T17:55:33.993Z,13.20
2018-04-10T17:58:01.456Z,13.00
2018-04-10T18:00:29.063Z,13.00
2018-04-10T18:02:56.570Z,12.80
2018-04-10T18:05:24.069Z,12.70
2018-04-10T18:07:51.539Z,12.70
2018-04-10T18:10:19.027Z,12.70
2018-04-10T18:12:47.277Z,12.70
2018-04-10T18:15:14.766Z,12.60
2018-04-10T18:17:43.012Z,12.70
2018-04-10T18:20:10.480Z,12.70
2018-04-10T18:22:37.972Z,12.60
2018-04-10T18:25:05.448Z,12.50
2018-04-10T18:27:32.928Z,12.50
2018-04-10T18:30:00.397Z,12.50
2018-04-10T18:32:27.888Z,12.50
2018-04-10T18:34:56.124Z,12.50
2018-04-10T18:37:23.608Z,12.50
2018-04-10T18:39:51.075Z,12.50
2018-04-10T18:42:19.327Z,12.40
2018-04-10T18:44:46.796Z,12.40
2018-04-10T18:47:14.301Z,12.30
2018-04-10T18:49:41.804Z,12.30
2018-04-10T18:52:09.292Z,12.10
2018-04-10T18:54:36.768Z,12.10
2018-04-10T18:57:04.249Z,12.10
2018-04-10T18:59:31.732Z,12.10
2018-04-10T19:01:59.233Z,12.00
2018-04-10T19:04:26.792Z,12.10
2018-04-10T19:06:54.267Z,12.00
2018-04-10T19:09:21.752Z,11.90
2018-04-10T19:11:49.263Z,12.00
2018-04-10T19:14:16.744Z,11.90
2018-04-10T19:16:44.208Z,11.80
2018-04-10T19:19:11.720Z,11.80
2018-04-10T19:21:39.192Z,11.70
2018-04-10T19:24:06.691Z,11.70
2018-04-10T19:26:34.160Z,11.60
2018-04-10T19:29:02.412Z,11.50
2018-04-10T19:31:29.922Z,11.50
2018-04-10T19:33:58.563Z,11.60
2018-04-10T19:36:26.264Z,11.50
2018-04-10T19:38:53.858Z,11.50
2018-04-10T19:41:21.322Z,11.50
2018-04-10T19:43:49.747Z,11.50
2018-04-10T19:46:17.997Z,11.50
2018-04-10T19:48:45.468Z,11.50
2018-04-10T19:51:12.948Z,11.50
2018-04-10T19:53:40.449Z,11.50
2018-04-10T19:56:07.940Z,11.50
2018-04-10T19:58:35.410Z,11.50
2018-04-10T20:01:02.899Z,11.50
2018-04-10T20:03:30.366Z,11.50
2018-04-10T20:05:57.852Z,11.50
2018-04-10T20:08:26.105Z,11.60
2018-04-10T20:10:53.588Z,11.60
2018-04-10T20:13:21.824Z,11.60
2018-04-10T20:15:49.319Z,11.50
2018-04-10T20:18:16.788Z,11.50
2018-04-10T20:20:44.268Z,11.50
2018-04-10T20:23:11.757Z,11.50
2018-04-10T20:25:39.249Z,11.50
2018-04-10T20:28:07.504Z,11.50
2018-04-10T20:30:34.972Z,11.50
2018-04-10T20:33:03.232Z,11.50
2018-04-10T20:35:30.696Z,11.50
2018-04-10T20:37:58.951Z,11.30
2018-04-10T20:40:26.413Z,11.30
2018-04-10T20:42:53.891Z,11.30
2018-04-10T20:45:22.195Z,10.90
2018-04-10T20:47:49.685Z,10.90
2018-04-10T20:50:17.148Z,10.70
2018-04-10T20:52:44.642Z,10.60
2018-04-10T20:55:12.876Z,10.50
2018-04-10T20:57:40.352Z,10.40
2018-04-10T21:00:07.822Z,10.40
2018-04-10T21:02:36.064Z,10.30
2018-04-10T21:05:05.045Z,10.20
2018-04-10T21:07:32.537Z,10.10
2018-04-10T21:10:00.769Z,10.00
2018-04-10T21:12:28.232Z,10.00
2018-04-10T21:14:55.720Z,10.00
2018-04-10T21:17:23.180Z,10.10
2018-04-10T21:19:50.671Z,10.00
2018-04-10T21:22:18.136Z,10.00
2018-04-10T21:24:45.616Z,10.00
2018-04-10T21:27:13.092Z,10.00
2018-04-10T21:29:40.573Z,10.10
2018-04-10T21:32:08.077Z,10.20
2018-04-10T21:34:35.552Z,10.20
2018-04-10T21:37:04.520Z,10.20
2018-04-10T21:39:32.005Z,10.20
2018-04-10T21:41:59.484Z,10.20
2018-04-10T21:44:27.727Z,10.20
2018-04-10T21:46:55.196Z,10.20
2018-04-10T21:49:22.692Z,10.20
2018-04-10T21:51:50.157Z,10.20
2018-04-10T21:54:17.624Z,10.20
2018-04-10T21:56:45.101Z,10.30
2018-04-10T21:59:12.560Z,10.30
2018-04-10T22:01:40.040Z,10.30
2018-04-10T22:04:08.278Z,10.20
2018-04-10T22:06:35.760Z,10.20
2018-04-10T22:09:03.224Z,10.30
2018-04-10T22:11:31.480Z,10.30
2018-04-10T22:13:58.949Z,10.30
2018-04-10T22:16:26.428Z,10.30
2018-04-10T22:18:54.660Z,10.30
2018-04-10T22:21:22.136Z,10.30
2018-04-10T22:23:49.601Z,10.30
2018-04-10T22:26:17.853Z,10.30
2018-04-10T22:28:46.081Z,10.30
2018-04-10T22:31:13.564Z,10.30
2018-04-10T22:33:41.066Z,10.40
2018-04-10T22:36:08.529Z,10.40
2018-04-10T22:38:36.076Z,10.50
2018-04-10T22:41:03.540Z,10.40
2018-04-10T22:43:31.016Z,10.40
2018-04-10T22:45:58.484Z,10.50
2018-04-10T22:48:25.968Z,10.50
2018-04-10T22:50:54.196Z,10.40
2018-04-10T22:53:21.689Z,10.30
2018-04-10T22:55:49.152Z,10.30
2018-04-10T22:58:17.396Z,10.30
2018-04-10T23:00:45.839Z,10.30
2018-04-10T23:03:13.329Z,10.30
2018-04-10T23:05:40.800Z,10.30
2018-04-10T23:08:08.288Z,10.30
2018-04-10T23:10:36.516Z,10.30
2018-04-10T23:13:04.321Z,10.20
2018-04-10T23:15:32.573Z,10.30
2018-04-10T23:18:00.044Z,10.20
2018-04-10T23:20:27.542Z,10.30
2018-04-10T23:22:55.780Z,10.20
2018-04-10T23:25:24.773Z,10.20
2018-04-10T23:27:52.236Z,10.20
2018-04-10T23:30:19.721Z,10.20
2018-04-10T23:32:47.197Z,10.30
2018-04-10T23:35:14.677Z,10.30
2018-04-10T23:37:42.144Z,10.30
2018-04-10T23:40:09.628Z,10.30
2018-04-10T23:42:37.092Z,10.30
2018-04-10T23:45:04.572Z,10.30
2018-04-10T23:47:32.035Z,10.20
2018-04-10T23:49:59.516Z,10.30
2018-04-10T23:52:26.981Z,10.30
2018-04-10T23:54:54.778Z,10.30
2018-04-10T23:57:22.237Z,10.30
2018-04-10T23:59:50.493Z,10.20
